Aviation Digital Data Service (ADDS)

Output produced by METARs form (1738 UTC 21 November 2014)
found at http://www.aviationweather.gov/adds/metars/
 
KLNS 211653Z 30015G24KT 10SM CLR 01/M13 A3037 RMK AO2 PK WND 29026/1620 SLP288 T00061133
KLNS 211731Z 2118/2218 31015G25KT P6SM SKC 
     FM220000 29006KT P6SM SKC